ADDS METAR Data INFO
IDs: Format: Raw Decoded Include TAF

Data at: 2026 UTC 20 Jul 2018

KTWF 201953Z 30007KT 10SM CLR 31/08 A3005 RMK AO2 SLP114 T03110083
KTWF 201853Z 33006KT 10SM CLR 29/08 A3005 RMK AO2 SLP119 T02940078
KTWF 201753Z 29007KT 10SM CLR 28/07 A3007 RMK AO2 SLP123 T02830067 10283 20144 55000
KTWF 201653Z 31007KT 270V330 10SM CLR 27/06 A3006 RMK AO2 SLP123 T02720061
KTWF 201553Z 31006KT 10SM CLR 26/03 A3007 RMK AO2 SLP123 T02610028
KTWF 201453Z 29005KT 10SM CLR 26/02 A3007 RMK AO2 SLP120 T02560017 53013
KTWF 201353Z 19007KT 10SM CLR 20/06 A3005 RMK AO2 SLP112 T02000056
KTWF 201253Z 17007KT 10SM CLR 15/06 A3003 RMK AO2 SLP112 T01500056
KTWF 201153Z AUTO 18008KT 10SM CLR 18/02 A3002 RMK AO2 SLP103 T01830022 10206 20167 53006
KTWF 201053Z AUTO 18010KT 10SM CLR 20/02 A3001 RMK AO2 SLP097 T02000022
KTWF 200953Z AUTO 19011KT 10SM CLR 19/02 A3000 RMK AO2 SLP096 T01940017
KTWF 200853Z AUTO 18012KT 10SM CLR 19/03 A3000 RMK AO2 SLP095 T01890028 56005
KTWF 200753Z AUTO 18012KT 10SM CLR 18/03 A3000 RMK AO2 SLP098 T01830033
KTWF 200653Z AUTO 19008KT 10SM CLR 17/08 A3001 RMK AO2 SLP102 T01720078 403390167
KTWF 200553Z AUTO 18008KT 10SM CLR 19/06 A3002 RMK AO2 SLP105 T01940056 10333 20183 50007
KTWF 200453Z AUTO 25005KT 10SM CLR 19/06 A3002 RMK AO2 SLP107 T01940061
KTWF 200353Z AUTO 17006KT 10SM CLR 21/07 A3001 RMK AO2 SLP101 T02110067
KTWF 200253Z AUTO 14008KT 10SM CLR 24/12 A3000 RMK AO2 SLP097 T02440117 55003
KTWF 200153Z 05003KT 10SM CLR 33/01 A2999 RMK AO2 SLP087 T03280011
KTWF 200053Z 31005KT 10SM CLR 33/01 A2999 RMK AO2 SLP091 T03280011
KTWF 192353Z 32008KT 10SM CLR 33/02 A3000 RMK AO2 SLP098 T03330017 10339 20289 56026
KTWF 192253Z 33010KT 10SM CLR 34/01 A3003 RMK AO2 SLP106 T03390011
KTWF 192153Z 32012KT 10SM CLR 33/01 A3006 RMK AO2 SLP117 T03280011
KTWF 192053Z 30009KT 270V340 10SM CLR 33/04 A3009 RMK AO2 SLP127 T03280044 58017
KTWF 191953Z 33007G16KT 10SM CLR 32/03 A3011 RMK AO2 SLP133 T03170033
KTWF 191853Z 29008KT 10SM CLR 31/05 A3014 RMK AO2 SLP144 T03110050
KTWF 191753Z 28008KT 10SM CLR 29/06 A3015 RMK AO2 SLP146 T02940056 10294 20172 58001
KTWF 191653Z 28012KT 10SM CLR 28/06 A3015 RMK AO2 SLP148 T02830061
KTWF 191553Z 24008KT 10SM CLR 28/04 A3015 RMK AO2 SLP148 T02780039
KTWF 191453Z 22010KT 10SM CLR 24/04 A3015 RMK AO2 SLP146 T02440039 51010
KTWF 191353Z 21009KT 10SM CLR 22/03 A3014 RMK AO2 SLP142 T02220028
KTWF 191253Z 20011KT 10SM CLR 19/02 A3013 RMK AO2 SLP138 T01940017
KTWF 191153Z 19012KT 10SM CLR 17/02 A3011 RMK AO2 SLP134 T01720017 10222 20172 53008
KTWF 191053Z AUTO 20011KT 10SM CLR 18/01 A3010 RMK AO2 SLP129 T01830006
KTWF 190953Z AUTO 19011KT 10SM CLR 18/01 A3010 RMK AO2 SLP127 T01830011
KTWF 190853Z AUTO 19010KT 10SM CLR 19/01 A3009 RMK AO2 SLP123 T01890011 53002